Time;durP1;ratioP1;P1;durP2;ratioP2;P2;SDS_P1;SDS_P2;PMS_P1;PMS_P2;Temp;Humidity;BMP_temperature;BMP_pressure;BME280_temperature;BME280_humidity;BME280_pressure;Samples;Min_cycle;Max_cycle;Signal;HPM_P1;HPM_P2
2022/07/05 00:00:52;;;;;;;2.78;1.35;;;;;;;;;;7312010;19;154025;-14
2022/07/05 00:03:27;;;;;;;6.80;1.80;;;;;;;;;;7311672;19;154518;-15
2022/07/05 00:06:00;;;;;;;5.43;1.60;;;;;;;;;;7309888;19;162236;-14
2022/07/05 00:08:31;;;;;;;7.87;1.87;;;;;;;;;;7308624;19;163353;-14
2022/07/05 00:11:02;;;;;;;4.35;1.45;;;;;;;;;;7310926;19;154573;-14
2022/07/05 00:13:34;;;;;;;5.40;1.50;;;;;;;;;;7310263;19;154297;-14
2022/07/05 00:16:06;;;;;;;3.65;1.65;;;;;;;;;;7310383;19;162225;-14
2022/07/05 00:18:39;;;;;;;6.38;1.83;;;;;;;;;;7308699;19;163454;-13
2022/07/05 00:21:12;;;;;;;2.67;1.40;;;;;;;;;;7306059;19;154635;-13
2022/07/05 00:23:43;;;;;;;6.53;1.65;;;;;;;;;;7309345;19;154294;-13
2022/07/05 00:26:14;;;;;;;2.05;1.48;;;;;;;;;;7309873;19;162835;-14
2022/07/05 00:28:45;;;;;;;6.95;1.83;;;;;;;;;;7307915;19;163119;-14
2022/07/05 00:31:16;;;;;;;6.00;1.77;;;;;;;;;;7311215;19;154673;-14
2022/07/05 00:33:50;;;;;;;5.05;1.75;;;;;;;;;;7317205;19;153960;-13
2022/07/05 00:36:21;;;;;;;6.30;1.70;;;;;;;;;;7316957;19;162505;-14
2022/07/05 00:38:53;;;;;;;7.45;1.40;;;;;;;;;;7316288;19;162903;-14
2022/07/05 00:41:24;;;;;;;9.98;1.98;;;;;;;;;;7316758;19;154900;-14
2022/07/05 00:43:58;;;;;;;3.95;1.83;;;;;;;;;;7317313;19;153990;-14
2022/07/05 00:46:30;;;;;;;6.07;1.55;;;;;;;;;;7316318;19;161777;-14
2022/07/05 00:49:05;;;;;;;6.07;1.80;;;;;;;;;;7316171;19;163334;-13
2022/07/05 00:51:38;;;;;;;8.30;1.80;;;;;;;;;;7317183;19;154597;-14
2022/07/05 00:54:20;;;;;;;5.85;1.77;;;;;;;;;;7314495;19;153948;-13
2022/07/05 00:56:52;;;;;;;3.70;1.42;;;;;;;;;;7314714;19;162296;-13
2022/07/05 00:59:26;;;;;;;5.82;1.77;;;;;;;;;;7315895;19;162863;-13
2022/07/05 01:01:58;;;;;;;5.13;1.80;;;;;;;;;;7314495;19;154611;-14
2022/07/05 01:04:32;;;;;;;4.03;1.40;;;;;;;;;;7314723;19;154280;-14
2022/07/05 01:07:03;;;;;;;5.60;1.80;;;;;;;;;;7315717;19;162215;-14
2022/07/05 01:09:37;;;;;;;4.70;1.35;;;;;;;;;;7316173;19;162851;-14
2022/07/05 01:12:10;;;;;;;5.20;1.40;;;;;;;;;;7314460;19;154731;-14
2022/07/05 01:14:45;;;;;;;4.82;1.83;;;;;;;;;;7315448;19;154213;-14
2022/07/05 01:17:16;;;;;;;3.47;1.42;;;;;;;;;;7315580;19;162271;-13
2022/07/05 01:19:52;;;;;;;7.03;1.77;;;;;;;;;;7314426;19;162795;-14
2022/07/05 01:22:27;;;;;;;4.68;1.73;;;;;;;;;;7314291;19;154165;-14
2022/07/05 01:25:01;;;;;;;5.28;1.70;;;;;;;;;;7315872;19;154316;-14
2022/07/05 01:27:33;;;;;;;4.47;1.58;;;;;;;;;;7313802;19;162630;-14
2022/07/05 01:30:04;;;;;;;3.58;1.27;;;;;;;;;;7313731;19;163321;-13
2022/07/05 01:32:36;;;;;;;4.80;1.58;;;;;;;;;;7314115;19;154806;-14
2022/07/05 01:35:10;;;;;;;3.83;1.73;;;;;;;;;;7314452;19;154002;-13
2022/07/05 01:37:42;;;;;;;3.25;1.50;;;;;;;;;;7315281;19;162296;-13
2022/07/05 01:40:17;;;;;;;2.20;1.13;;;;;;;;;;7315109;19;163211;-13
2022/07/05 01:42:49;;;;;;;4.90;1.40;;;;;;;;;;7311797;19;154444;-13
2022/07/05 01:48:05;;;;;;;2.83;1.25;;;;;;;;;;7314967;19;162072;-12
2022/07/05 01:50:39;;;;;;;;;;;;;;;;;;7314554;19;162889;-13
2022/07/05 01:53:14;;;;;;;4.63;1.65;;;;;;;;;;7314525;19;154684;-13
2022/07/05 01:55:48;;;;;;;3.22;1.35;;;;;;;;;;7312225;19;154095;-13
2022/07/05 01:58:20;;;;;;;3.65;1.30;;;;;;;;;;7312268;19;162823;-13
2022/07/05 02:00:57;;;;;;;3.60;1.60;;;;;;;;;;7315549;19;163237;-14
2022/07/05 02:03:29;;;;;;;3.15;1.55;;;;;;;;;;7314376;19;154821;-14
2022/07/05 02:06:16;;;;;;;2.78;1.30;;;;;;;;;;7313281;19;154436;-15
2022/07/05 02:08:48;;;;;;;2.60;1.40;;;;;;;;;;7314058;19;162335;-14
2022/07/05 02:11:22;;;;;;;3.83;1.40;;;;;;;;;;7312347;19;162814;-14
2022/07/05 02:13:53;;;;;;;2.63;1.45;;;;;;;;;;7313128;19;154586;-14
2022/07/05 02:16:28;;;;;;;2.40;1.30;;;;;;;;;;7312574;19;154399;-14
2022/07/05 02:18:59;;;;;;;6.38;1.23;;;;;;;;;;7311239;19;162340;-14
2022/07/05 02:21:34;;;;;;;4.10;1.60;;;;;;;;;;7315348;19;162819;-15
2022/07/05 02:24:09;;;;;;;6.13;1.73;;;;;;;;;;7311590;19;154581;-15
2022/07/05 02:26:51;;;;;;;4.82;1.52;;;;;;;;;;7312045;19;154320;-14
2022/07/05 02:29:24;;;;;;;2.38;1.25;;;;;;;;;;7312131;19;162351;-14
2022/07/05 02:31:56;;;;;;;2.45;1.33;;;;;;;;;;7311531;19;162867;-14
2022/07/05 02:34:29;;;;;;;2.83;1.60;;;;;;;;;;7311610;19;155152;-14
2022/07/05 02:37:00;;;;;;;2.97;1.88;;;;;;;;;;7311784;19;154896;-14
2022/07/05 02:39:32;;;;;;;2.67;1.20;;;;;;;;;;7311592;19;162255;-14
2022/07/05 02:42:07;;;;;;;2.10;1.37;;;;;;;;;;7310760;19;162821;-14
2022/07/05 02:44:38;;;;;;;3.38;1.58;;;;;;;;;;7313664;19;154557;-14
2022/07/05 02:47:11;;;;;;;2.58;1.23;;;;;;;;;;7312045;19;154116;-14
2022/07/05 02:49:43;;;;;;;2.05;1.42;;;;;;;;;;7311883;19;162208;-14
2022/07/05 02:52:14;;;;;;;1.50;1.10;;;;;;;;;;7312924;19;163116;-14
2022/07/05 02:54:46;;;;;;;4.13;1.50;;;;;;;;;;7308827;19;154564;-14
2022/07/05 02:57:21;;;;;;;2.78;1.40;;;;;;;;;;7309463;19;154123;-14
2022/07/05 02:59:55;;;;;;;4.82;1.50;;;;;;;;;;7310895;19;162250;-14
2022/07/05 03:02:31;;;;;;;2.65;1.40;;;;;;;;;;7311332;19;165227;-14
2022/07/05 03:05:03;;;;;;;3.50;1.20;;;;;;;;;;7312153;19;154990;-14
2022/07/05 03:07:35;;;;;;;3.47;1.55;;;;;;;;;;7311082;19;153954;-14
2022/07/05 03:10:11;;;;;;;3.23;1.07;;;;;;;;;;7311488;19;162693;-14
2022/07/05 03:12:45;;;;;;;2.50;1.58;;;;;;;;;;7311996;19;163233;-14
2022/07/05 03:15:20;;;;;;;3.72;1.63;;;;;;;;;;7313643;19;154557;-14
2022/07/05 03:17:51;;;;;;;3.92;1.30;;;;;;;;;;7307611;19;154938;-14
2022/07/05 03:20:24;;;;;;;;;;;;;;;;;;7309936;19;163130;-14
2022/07/05 03:22:55;;;;;;;3.63;1.52;;;;;;;;;;7312044;19;163670;-14
2022/07/05 03:25:36;;;;;;;4.03;1.42;;;;;;;;;;7311330;19;155931;-14
2022/07/05 03:28:18;;;;;;;1.70;1.17;;;;;;;;;;7311882;19;154085;-14
2022/07/05 03:30:53;;;;;;;2.72;1.00;;;;;;;;;;7311132;19;163159;-14
2022/07/05 03:33:25;;;;;;;2.92;1.38;;;;;;;;;;7309393;19;165059;-14
2022/07/05 03:36:02;;;;;;;2.95;1.20;;;;;;;;;;7311726;19;155208;-14
2022/07/05 03:38:34;;;;;;;4.00;1.45;;;;;;;;;;7309767;19;156126;-14
2022/07/05 03:41:05;;;;;;;1.48;1.00;;;;;;;;;;7310642;19;162394;-14
2022/07/05 03:43:39;;;;;;;4.28;1.35;;;;;;;;;;7310666;19;163025;-14
2022/07/05 03:46:11;;;;;;;1.30;1.20;;;;;;;;;;7309350;19;154504;-14
2022/07/05 03:48:44;;;;;;;2.92;1.30;;;;;;;;;;7311238;19;153909;-14
2022/07/05 03:51:19;;;;;;;2.47;1.40;;;;;;;;;;7308814;19;162799;-14
2022/07/05 03:53:51;;;;;;;1.42;1.10;;;;;;;;;;7310122;19;162816;-14
2022/07/05 03:56:23;;;;;;;2.97;1.20;;;;;;;;;;7309334;19;154681;-14
2022/07/05 03:58:59;;;;;;;1.65;1.20;;;;;;;;;;7309006;19;154080;-14
2022/07/05 04:01:30;;;;;;;2.22;1.30;;;;;;;;;;7312390;19;162898;-14
2022/07/05 04:04:01;;;;;;;1.85;1.27;;;;;;;;;;7309497;19;162845;-14
2022/07/05 04:06:34;;;;;;;4.05;1.27;;;;;;;;;;7309552;19;154933;-14
2022/07/05 04:09:13;;;;;;;2.08;1.02;;;;;;;;;;7310420;19;153971;-14
2022/07/05 04:11:44;;;;;;;4.22;1.40;;;;;;;;;;7311084;19;162707;-14
2022/07/05 04:14:18;;;;;;;1.55;1.27;;;;;;;;;;7310538;19;163314;-14
2022/07/05 04:16:52;;;;;;;1.33;1.10;;;;;;;;;;7307765;19;154614;-14
2022/07/05 04:19:24;;;;;;;1.90;1.02;;;;;;;;;;7309687;19;154798;-14
2022/07/05 04:21:56;;;;;;;3.72;1.40;;;;;;;;;;7309087;19;162186;-14
2022/07/05 04:24:28;;;;;;;1.50;0.93;;;;;;;;;;7308793;19;163639;-14
2022/07/05 04:26:59;;;;;;;3.03;1.20;;;;;;;;;;7312021;19;154502;-14
2022/07/05 04:29:33;;;;;;;1.00;0.90;;;;;;;;;;7310736;19;153966;-14
2022/07/05 04:32:06;;;;;;;1.85;1.10;;;;;;;;;;7308745;19;162182;-14
2022/07/05 04:34:37;;;;;;;2.17;1.38;;;;;;;;;;7308673;19;162942;-14
2022/07/05 04:37:08;;;;;;;1.92;1.20;;;;;;;;;;7307118;19;154941;-14
2022/07/05 04:39:39;;;;;;;1.58;0.95;;;;;;;;;;7309008;19;154091;-14
2022/07/05 04:42:16;;;;;;;1.33;1.10;;;;;;;;;;7308279;19;162303;-14
2022/07/05 04:44:50;;;;;;;1.40;1.10;;;;;;;;;;7307453;19;163259;-14
2022/07/05 04:47:25;;;;;;;2.25;1.38;;;;;;;;;;7309430;19;154461;-14
2022/07/05 04:50:01;;;;;;;2.13;1.10;;;;;;;;;;7307646;19;154500;-14
2022/07/05 04:52:36;;;;;;;1.33;0.95;;;;;;;;;;7307434;19;162278;-14
2022/07/05 04:55:09;;;;;;;1.65;0.85;;;;;;;;;;7309556;19;163180;-14
2022/07/05 04:57:41;;;;;;;2.47;1.08;;;;;;;;;;7308157;19;154511;-14
2022/07/05 05:00:20;;;;;;;2.08;1.13;;;;;;;;;;7307827;19;154045;-15
2022/07/05 05:02:54;;;;;;;0.93;0.85;;;;;;;;;;7309769;19;162699;-14
2022/07/05 05:05:25;;;;;;;1.35;0.85;;;;;;;;;;7308330;19;163397;-14
2022/07/05 05:07:57;;;;;;;1.38;1.05;;;;;;;;;;7309365;19;155115;-14
2022/07/05 05:10:34;;;;;;;1.55;1.00;;;;;;;;;;7308360;19;154017;-14
2022/07/05 05:13:10;;;;;;;2.17;1.30;;;;;;;;;;7307650;19;162289;-14
2022/07/05 05:15:44;;;;;;;1.20;1.10;;;;;;;;;;7308336;19;163221;-14
2022/07/05 05:18:18;;;;;;;1.55;0.90;;;;;;;;;;7310525;19;154566;-14
2022/07/05 05:20:49;;;;;;;1.42;1.20;;;;;;;;;;7313204;19;153967;-13
2022/07/05 05:23:21;;;;;;;2.25;1.10;;;;;;;;;;7314032;19;162277;-13
2022/07/05 05:25:52;;;;;;;2.67;1.25;;;;;;;;;;7315346;19;163335;-15
2022/07/05 05:28:26;;;;;;;1.38;1.20;;;;;;;;;;7315626;19;154687;-14
2022/07/05 05:30:59;;;;;;;4.03;1.63;;;;;;;;;;7315591;19;153912;-14
2022/07/05 05:33:31;;;;;;;4.20;1.35;;;;;;;;;;7315188;19;162202;-13
2022/07/05 05:36:03;;;;;;;3.33;1.45;;;;;;;;;;7315220;19;162835;-13
2022/07/05 05:38:34;;;;;;;;;;;;;;;;;;7314593;19;154449;-13
2022/07/05 05:41:05;;;;;;;4.50;1.67;;;;;;;;;;7315373;19;154325;-13
2022/07/05 05:43:37;;;;;;;4.13;1.60;;;;;;;;;;7313096;19;162313;-13
2022/07/05 05:46:11;;;;;;;5.32;1.40;;;;;;;;;;7313093;19;162915;-14
2022/07/05 05:48:42;;;;;;;3.28;1.40;;;;;;;;;;7315079;19;154815;-14
2022/07/05 05:51:13;;;;;;;4.75;1.85;;;;;;;;;;7314589;19;153924;-14
2022/07/05 05:53:45;;;;;;;4.05;1.88;;;;;;;;;;7312454;19;162328;-14
2022/07/05 05:56:17;;;;;;;8.65;1.90;;;;;;;;;;7314499;19;163570;-14
2022/07/05 05:58:48;;;;;;;5.60;1.23;;;;;;;;;;7313046;19;154476;-13
2022/07/05 06:01:22;;;;;;;4.47;1.58;;;;;;;;;;7314866;19;154516;-13
2022/07/05 06:03:53;;;;;;;10.93;1.80;;;;;;;;;;7314082;19;162257;-13
2022/07/05 06:06:24;;;;;;;2.20;1.40;;;;;;;;;;7313884;19;163222;-13
2022/07/05 06:08:55;;;;;;;5.10;2.03;;;;;;;;;;7314289;19;154887;-13
2022/07/05 06:11:26;;;;;;;6.45;1.65;;;;;;;;;;7314525;19;154425;-14
2022/07/05 06:14:00;;;;;;;3.28;1.60;;;;;;;;;;7314010;19;163253;-13
2022/07/05 06:16:36;;;;;;;4.10;1.52;;;;;;;;;;7313962;19;162921;-14
2022/07/05 06:19:07;;;;;;;2.63;1.30;;;;;;;;;;7311765;19;154476;-14
2022/07/05 06:21:38;;;;;;;4.68;1.40;;;;;;;;;;7314175;19;154178;-14
2022/07/05 06:24:10;;;;;;;3.88;1.33;;;;;;;;;;7313681;19;162317;-14
2022/07/05 06:26:41;;;;;;;5.40;1.55;;;;;;;;;;7313463;19;163228;-13
2022/07/05 06:29:12;;;;;;;3.10;1.35;;;;;;;;;;7313383;19;154581;-14
2022/07/05 06:31:46;;;;;;;4.60;1.42;;;;;;;;;;7311936;19;154056;-13
2022/07/05 06:34:17;;;;;;;2.83;1.52;;;;;;;;;;7313264;19;162141;-14
2022/07/05 06:36:48;;;;;;;6.57;1.52;;;;;;;;;;7313134;19;163201;-13
2022/07/05 06:39:20;;;;;;;8.40;1.88;;;;;;;;;;7311696;19;154486;-14
2022/07/05 06:41:51;;;;;;;8.95;1.90;;;;;;;;;;7313340;19;154092;-15
2022/07/05 06:44:22;;;;;;;3.58;1.45;;;;;;;;;;7313179;19;162342;-13
2022/07/05 06:47:07;;;;;;;2.37;1.40;;;;;;;;;;7313105;19;163390;-13
2022/07/05 06:49:38;;;;;;;4.55;1.60;;;;;;;;;;7313316;19;154530;-13
2022/07/05 06:52:09;;;;;;;5.22;1.90;;;;;;;;;;7311304;19;154116;-13
2022/07/05 06:54:41;;;;;;;2.85;1.80;;;;;;;;;;7312163;19;162852;-13
2022/07/05 06:57:22;;;;;;;6.68;2.13;;;;;;;;;;7312229;19;162822;-13
2022/07/05 07:00:02;;;;;;;5.82;1.52;;;;;;;;;;7310204;19;154493;-15
2022/07/05 07:02:38;;;;;;;9.43;1.73;;;;;;;;;;7312631;19;154431;-14
2022/07/05 07:05:11;;;;;;;3.60;1.48;;;;;;;;;;7312381;19;162286;-21
2022/07/05 07:10:26;;;;;;;3.50;1.52;;;;;;;;;;7312689;19;154892;-14
2022/07/05 07:12:59;;;;;;;2.22;1.33;;;;;;;;;;7312226;19;154249;-14
2022/07/05 07:15:31;;;;;;;1.42;1.20;;;;;;;;;;7312340;19;162152;-15
2022/07/05 07:18:05;;;;;;;3.97;1.55;;;;;;;;;;7312207;19;162906;-15
2022/07/05 07:20:36;;;;;;;5.35;1.65;;;;;;;;;;7309389;19;154895;-13
2022/07/05 07:23:07;;;;;;;7.45;1.88;;;;;;;;;;7312035;19;154004;-16
2022/07/05 07:25:38;;;;;;;6.82;1.90;;;;;;;;;;7311847;19;161942;-13
2022/07/05 07:28:10;;;;;;;3.17;1.40;;;;;;;;;;7311968;19;162884;-14
2022/07/05 07:30:42;;;;;;;5.60;1.70;;;;;;;;;;7311923;19;154494;-15
2022/07/05 07:33:16;;;;;;;3.42;1.60;;;;;;;;;;7311984;19;154081;-14
2022/07/05 07:35:52;;;;;;;6.20;1.33;;;;;;;;;;7311830;19;161909;-15
2022/07/05 07:38:24;;;;;;;5.10;1.73;;;;;;;;;;7311455;19;163152;-13
2022/07/05 07:41:00;;;;;;;7.33;1.90;;;;;;;;;;7310051;19;154467;-14
2022/07/05 07:43:31;;;;;;;4.20;1.70;;;;;;;;;;7309835;19;153903;-14
2022/07/05 07:46:03;;;;;;;3.10;1.33;;;;;;;;;;7311549;19;162328;-14
2022/07/05 07:48:40;;;;;;;4.65;1.38;;;;;;;;;;7311245;19;162871;-14
2022/07/05 07:51:11;;;;;;;4.82;1.70;;;;;;;;;;7311286;19;154539;-14
2022/07/05 07:53:50;;;;;;;10.45;1.50;;;;;;;;;;7309604;19;154077;-14
2022/07/05 07:56:21;;;;;;;2.92;1.23;;;;;;;;;;7310993;19;162803;-14
2022/07/05 07:58:52;;;;;;;2.53;1.30;;;;;;;;;;7310405;19;163233;-14
2022/07/05 08:01:31;;;;;;;2.75;1.20;;;;;;;;;;7309502;19;154697;-14
2022/07/05 08:04:05;;;;;;;1.65;1.48;;;;;;;;;;7310948;19;154135;-14
2022/07/05 08:06:36;;;;;;;4.15;1.40;;;;;;;;;;7310626;19;162774;-15
2022/07/05 08:09:07;;;;;;;5.32;1.83;;;;;;;;;;7310851;19;162934;-15
2022/07/05 08:11:41;;;;;;;3.85;1.52;;;;;;;;;;7311724;19;154020;-15
2022/07/05 08:14:14;;;;;;;7.22;1.70;;;;;;;;;;7310950;19;153859;-14
2022/07/05 08:16:50;;;;;;;2.45;1.40;;;;;;;;;;7310391;19;162343;-15
2022/07/05 08:22:12;;;;;;;4.22;1.30;;;;;;;;;;7309415;19;154891;-14
2022/07/05 08:24:44;;;;;;;1.67;1.15;;;;;;;;;;7310522;19;154454;-15
2022/07/05 08:27:15;;;;;;;2.50;1.35;;;;;;;;;;7309946;19;163370;-14
2022/07/05 08:29:47;;;;;;;4.22;1.45;;;;;;;;;;7309906;19;163495;-15
2022/07/05 08:32:18;;;;;;;3.22;1.40;;;;;;;;;;7310431;19;155069;-15
2022/07/05 08:34:52;;;;;;;2.03;1.20;;;;;;;;;;7310078;19;154017;-14
2022/07/05 08:37:23;;;;;;;4.25;1.70;;;;;;;;;;7309858;19;163026;-15
2022/07/05 08:39:54;;;;;;;8.27;1.75;;;;;;;;;;7308438;19;162842;-15
2022/07/05 08:42:29;;;;;;;7.03;1.65;;;;;;;;;;7310131;19;153979;-15
2022/07/05 08:45:01;;;;;;;5.20;1.65;;;;;;;;;;7309656;19;153977;-15
2022/07/05 08:47:34;;;;;;;11.75;2.22;;;;;;;;;;7309539;19;162671;-15
2022/07/05 08:50:15;;;;;;;8.60;1.73;;;;;;;;;;7309678;19;162896;-15
2022/07/05 08:52:49;;;;;;;5.70;1.88;;;;;;;;;;7312814;19;155134;-15
2022/07/05 08:55:21;;;;;;;12.30;2.25;;;;;;;;;;7316956;19;154453;-14
2022/07/05 08:57:52;;;;;;;3.42;1.45;;;;;;;;;;7316172;19;162304;-15
2022/07/05 09:00:24;;;;;;;4.60;1.45;;;;;;;;;;7315041;19;162752;-15
2022/07/05 09:02:55;;;;;;;4.00;1.40;;;;;;;;;;7316598;19;154706;-15
2022/07/05 09:05:29;;;;;;;3.72;1.42;;;;;;;;;;7316275;19;153876;-15
2022/07/05 09:08:03;;;;;;;2.78;1.25;;;;;;;;;;7313995;19;162852;-15
2022/07/05 09:10:35;;;;;;;5.47;1.55;;;;;;;;;;7314315;19;162935;-15
2022/07/05 09:13:07;;;;;;;4.83;1.60;;;;;;;;;;7316151;19;154558;-15
2022/07/05 09:15:41;;;;;;;9.35;1.60;;;;;;;;;;7315983;19;153977;-15
2022/07/05 09:18:12;;;;;;;8.85;1.90;;;;;;;;;;7316106;19;162759;-14
2022/07/05 09:20:46;;;;;;;6.57;1.80;;;;;;;;;;7313518;19;162910;-14
2022/07/05 09:23:25;;;;;;;3.63;1.40;;;;;;;;;;7315936;19;154694;-14
2022/07/05 09:26:05;;;;;;;3.58;1.27;;;;;;;;;;7315627;19;154293;-15
2022/07/05 09:28:36;;;;;;;6.03;1.20;;;;;;;;;;7313700;19;162832;-15
2022/07/05 09:31:08;;;;;;;6.50;1.55;;;;;;;;;;7315190;19;162912;-25
2022/07/05 09:33:51;;;;;;;4.80;1.63;;;;;;;;;;7315126;19;154612;-15
2022/07/05 09:36:25;;;;;;;3.58;1.40;;;;;;;;;;7313401;19;154277;-15
2022/07/05 09:38:56;;;;;;;3.65;1.30;;;;;;;;;;7312709;19;162619;-14
2022/07/05 09:41:28;;;;;;;4.13;1.30;;;;;;;;;;7313124;19;162884;-15
2022/07/05 09:43:59;;;;;;;4.22;1.85;;;;;;;;;;7314506;19;154646;-14
2022/07/05 09:46:33;;;;;;;4.03;1.30;;;;;;;;;;7314353;19;154034;-14
2022/07/05 09:49:04;;;;;;;3.50;1.20;;;;;;;;;;7314176;19;162240;-14
2022/07/05 09:51:56;;;;;;;2.50;1.30;;;;;;;;;;7313794;19;163756;-15
2022/07/05 09:54:27;;;;;;;3.75;1.38;;;;;;;;;;7314651;19;155027;-15
2022/07/05 09:56:58;;;;;;;2.47;1.02;;;;;;;;;;7313216;19;153551;-14
2022/07/05 09:59:30;;;;;;;9.02;1.50;;;;;;;;;;7313675;19;162383;-15
2022/07/05 10:02:01;;;;;;;2.75;1.42;;;;;;;;;;7311906;19;162817;-15
2022/07/05 10:04:32;;;;;;;4.85;1.10;;;;;;;;;;7311887;19;154613;-15
2022/07/05 10:07:06;;;;;;;2.05;1.27;;;;;;;;;;7314847;19;154565;-15
2022/07/05 10:09:38;;;;;;;3.08;1.00;;;;;;;;;;7314341;19;162754;-15
2022/07/05 10:12:10;;;;;;;5.33;1.43;;;;;;;;;;7314027;19;162417;-15
2022/07/05 10:14:42;;;;;;;1.60;1.05;;;;;;;;;;7314473;19;154617;-14
2022/07/05 10:17:13;;;;;;;3.88;1.25;;;;;;;;;;7314674;19;153899;-15
2022/07/05 10:19:49;;;;;;;3.28;1.00;;;;;;;;;;7312436;19;162866;-15
2022/07/05 10:22:23;;;;;;;3.20;1.23;;;;;;;;;;7311794;19;162779;-15
2022/07/05 10:24:56;;;;;;;3.20;1.20;;;;;;;;;;7314507;19;155180;-15
2022/07/05 10:27:30;;;;;;;4.05;1.75;;;;;;;;;;7314559;19;154115;-14
2022/07/05 10:30:02;;;;;;;3.80;1.00;;;;;;;;;;7313825;19;162139;-14
2022/07/05 10:32:36;;;;;;;2.83;1.00;;;;;;;;;;7312416;19;163293;-15
2022/07/05 10:35:09;;;;;;;2.53;1.13;;;;;;;;;;7313926;19;154060;-15
2022/07/05 10:37:43;;;;;;;1.38;0.77;;;;;;;;;;7313860;19;153942;-15
2022/07/05 10:40:14;;;;;;;5.15;1.50;;;;;;;;;;7313528;19;162762;-15
2022/07/05 10:42:49;;;;;;;4.50;1.20;;;;;;;;;;7310949;19;163419;-15
2022/07/05 10:45:28;;;;;;;2.70;1.40;;;;;;;;;;7314013;19;154925;-15
2022/07/05 10:48:20;;;;;;;3.50;1.13;;;;;;;;;;7313710;19;153939;-15
2022/07/05 10:50:54;;;;;;;6.23;1.20;;;;;;;;;;7313361;19;162372;-15
2022/07/05 10:53:30;;;;;;;1.60;1.00;;;;;;;;;;7311448;19;162911;-15
2022/07/05 10:56:14;;;;;;;3.92;1.95;;;;;;;;;;7311983;19;155005;-15
2022/07/05 10:58:50;;;;;;;4.93;1.20;;;;;;;;;;7313380;19;154025;-14
2022/07/05 11:01:38;;;;;;;7.10;1.35;;;;;;;;;;7312398;19;162805;-15
2022/07/05 11:04:30;;;;;;;4.32;1.23;;;;;;;;;;7312780;19;163222;-15
2022/07/05 11:07:01;;;;;;;3.97;1.30;;;;;;;;;;7313122;19;154484;-15
2022/07/05 11:09:36;;;;;;;3.15;1.20;;;;;;;;;;7311369;19;153984;-15
2022/07/05 11:12:12;;;;;;;5.03;1.52;;;;;;;;;;7312157;19;162267;-15
2022/07/05 11:15:11;;;;;;;4.95;1.60;;;;;;;;;;7309407;19;133504;-15
2022/07/05 11:17:42;;;;;;;2.60;1.17;;;;;;;;;;7312506;19;154547;-15
2022/07/05 11:20:37;;;;;;;8.50;1.45;;;;;;;;;;7310583;19;153858;-15
2022/07/05 11:23:14;;;;;;;3.55;1.15;;;;;;;;;;7309724;19;162833;-15
2022/07/05 11:25:50;;;;;;;4.15;1.10;;;;;;;;;;7312169;19;162798;-15
2022/07/05 11:28:25;;;;;;;3.13;1.42;;;;;;;;;;7312740;19;154866;-15
2022/07/05 11:30:59;;;;;;;3.55;1.52;;;;;;;;;;7312319;19;153941;-15
2022/07/05 11:33:35;;;;;;;1.95;1.10;;;;;;;;;;7312004;19;162264;-15
2022/07/05 11:36:09;;;;;;;5.85;1.75;;;;;;;;;;7310822;19;163060;-14
2022/07/05 11:39:10;;;;;;;4.43;1.10;;;;;;;;;;7312267;19;154938;-15
2022/07/05 11:41:47;;;;;;;2.58;1.10;;;;;;;;;;7309408;19;154407;-15
2022/07/05 11:44:20;;;;;;;2.97;1.10;;;;;;;;;;7311581;19;162809;-14
2022/07/05 11:46:59;;;;;;;2.13;1.20;;;;;;;;;;7310871;19;163284;-15
2022/07/05 11:49:36;;;;;;;5.45;1.15;;;;;;;;;;7312005;19;154843;-15
2022/07/05 11:52:08;;;;;;;0.95;0.95;;;;;;;;;;7311383;19;153921;-15
2022/07/05 11:54:39;;;;;;;3.63;1.40;;;;;;;;;;7311282;19;163344;-15
2022/07/05 11:57:13;;;;;;;2.63;1.42;;;;;;;;;;7310846;19;163494;-15
2022/07/05 11:59:47;;;;;;;1.75;0.98;;;;;;;;;;7311460;19;154500;-14
2022/07/05 12:02:23;;;;;;;1.73;1.10;;;;;;;;;;7309886;19;153995;-14
2022/07/05 12:04:55;;;;;;;5.25;1.40;;;;;;;;;;7310718;19;162294;-14
2022/07/05 12:07:30;;;;;;;1.83;0.90;;;;;;;;;;7310979;19;163007;-14
2022/07/05 12:12:49;;;;;;;2.65;1.23;;;;;;;;;;7311111;19;153999;-15
2022/07/05 12:15:22;;;;;;;6.25;1.77;;;;;;;;;;7310446;19;162375;-14
2022/07/05 12:17:54;;;;;;;3.70;1.10;;;;;;;;;;7310204;19;162750;-14
2022/07/05 12:20:27;;;;;;;10.82;1.45;;;;;;;;;;7307812;19;154603;-15
2022/07/05 12:22:58;;;;;;;3.10;1.10;;;;;;;;;;7309316;19;154476;-14
2022/07/05 12:25:31;;;;;;;5.22;1.40;;;;;;;;;;7309681;19;162213;-14
2022/07/05 12:28:06;;;;;;;3.50;1.17;;;;;;;;;;7316779;19;163237;-14
2022/07/05 12:30:40;;;;;;;1.73;0.90;;;;;;;;;;7316907;19;154631;-14
2022/07/05 12:33:12;;;;;;;4.22;1.00;;;;;;;;;;7315136;19;153983;-14
2022/07/05 12:35:45;;;;;;;3.25;1.27;;;;;;;;;;7313993;19;162318;-13
2022/07/05 12:38:18;;;;;;;;;;;;;;;;;;7314801;19;162389;-14
2022/07/05 12:40:51;;;;;;;1.77;1.00;;;;;;;;;;7316189;19;154777;-14
2022/07/05 12:43:25;;;;;;;1.90;1.05;;;;;;;;;;7313815;19;154113;-15
2022/07/05 12:46:02;;;;;;;2.30;1.20;;;;;;;;;;7316832;19;162192;-15
2022/07/05 12:48:34;;;;;;;5.15;1.23;;;;;;;;;;7314659;19;163194;-14
2022/07/05 12:51:07;;;;;;;5.15;1.17;;;;;;;;;;7317087;19;154795;-15
2022/07/05 12:59:30;;;;;;;2.30;1.08;;;;;;;;;;7316551;19;162774;-15
2022/07/05 13:02:01;;;;;;;2.25;1.00;;;;;;;;;;7316426;19;155124;-15
2022/07/05 13:04:33;;;;;;;3.38;1.15;;;;;;;;;;7315452;19;154389;-15
2022/07/05 13:07:05;;;;;;;1.85;1.00;;;;;;;;;;7315412;19;162212;-15
2022/07/05 13:09:47;;;;;;;2.88;1.13;;;;;;;;;;7314686;19;163407;-15
2022/07/05 13:12:21;;;;;;;1.65;1.20;;;;;;;;;;7316311;19;154527;-15
2022/07/05 13:14:55;;;;;;;3.17;1.10;;;;;;;;;;7315874;19;154084;-14
2022/07/05 13:17:27;;;;;;;2.42;0.80;;;;;;;;;;7316004;19;162288;-15
2022/07/05 13:19:59;;;;;;;2.63;1.13;;;;;;;;;;7312328;19;162806;-15
2022/07/05 13:22:30;;;;;;;4.05;0.90;;;;;;;;;;7316161;19;154608;-14
2022/07/05 13:25:03;;;;;;;2.05;0.85;;;;;;;;;;7315983;19;154501;-14
2022/07/05 13:27:34;;;;;;;2.90;1.08;;;;;;;;;;7315532;19;162216;-14
2022/07/05 13:30:10;;;;;;;3.15;1.30;;;;;;;;;;7315329;19;163737;-14
2022/07/05 13:32:41;;;;;;;4.10;1.40;;;;;;;;;;7315756;19;154495;-14
2022/07/05 13:35:13;;;;;;;3.65;1.15;;;;;;;;;;7315819;19;154588;-14
2022/07/05 13:37:44;;;;;;;1.67;1.00;;;;;;;;;;7313749;19;162270;-14
2022/07/05 13:40:15;;;;;;;6.22;1.83;;;;;;;;;;7309626;19;163210;-14
2022/07/05 13:42:47;;;;;;;2.85;1.10;;;;;;;;;;7314277;19;154526;-14
2022/07/05 13:45:21;;;;;;;6.03;1.10;;;;;;;;;;7314921;19;153969;-14
2022/07/05 13:47:55;;;;;;;2.72;1.35;;;;;;;;;;7315173;19;162361;-14
2022/07/05 13:50:37;;;;;;;5.25;1.35;;;;;;;;;;7314714;19;162831;-14
2022/07/05 13:53:08;;;;;;;1.88;1.20;;;;;;;;;;7314126;19;154529;-14
2022/07/05 13:55:42;;;;;;;2.85;1.30;;;;;;;;;;7314921;19;153954;-14
2022/07/05 13:58:13;;;;;;;2.53;1.10;;;;;;;;;;7312987;19;161805;-14
2022/07/05 14:00:47;;;;;;;2.75;1.17;;;;;;;;;;7314285;19;163433;-14
2022/07/05 14:03:18;;;;;;;2.47;0.90;;;;;;;;;;7308517;19;156593;-14
2022/07/05 14:05:50;;;;;;;1.73;1.08;;;;;;;;;;7312408;19;154409;-14
2022/07/05 14:08:24;;;;;;;5.18;1.30;;;;;;;;;;7309631;19;162175;-14
2022/07/05 14:10:58;;;;;;;3.88;1.25;;;;;;;;;;7313435;19;162900;-14
2022/07/05 14:13:29;;;;;;;3.15;1.13;;;;;;;;;;7313144;19;154544;-14
2022/07/05 14:16:03;;;;;;;2.47;1.20;;;;;;;;;;7311516;19;154048;-14
2022/07/05 14:18:37;;;;;;;2.50;1.55;;;;;;;;;;7313268;19;161926;-14
2022/07/05 14:21:14;;;;;;;4.43;1.70;;;;;;;;;;7310829;19;163772;-14
2022/07/05 14:23:47;;;;;;;1.60;1.10;;;;;;;;;;7311642;19;154624;-14
2022/07/05 14:26:21;;;;;;;4.00;1.33;;;;;;;;;;7314515;19;153916;-14
2022/07/05 14:28:52;;;;;;;1.65;1.23;;;;;;;;;;7313831;19;162723;-14
2022/07/05 14:31:30;;;;;;;5.43;1.50;;;;;;;;;;7313840;19;162894;-14
2022/07/05 14:34:02;;;;;;;2.25;1.20;;;;;;;;;;7314249;19;154524;-14
2022/07/05 14:36:33;;;;;;;4.70;1.38;;;;;;;;;;7312470;19;153995;-14
2022/07/05 14:39:04;;;;;;;4.85;1.38;;;;;;;;;;7314126;19;162307;-14
2022/07/05 14:41:36;;;;;;;4.80;1.23;;;;;;;;;;7313705;19;162843;-14
2022/07/05 14:44:07;;;;;;;3.05;1.02;;;;;;;;;;7312630;19;154566;-14
2022/07/05 14:46:42;;;;;;;6.65;1.55;;;;;;;;;;7313812;19;154534;-14
2022/07/05 14:49:13;;;;;;;6.38;1.40;;;;;;;;;;7313652;19;162210;-14
2022/07/05 14:51:44;;;;;;;5.88;1.50;;;;;;;;;;7313153;19;164079;-14
2022/07/05 14:54:16;;;;;;;7.13;1.48;;;;;;;;;;7313654;19;154590;-14
2022/07/05 14:56:47;;;;;;;4.43;1.38;;;;;;;;;;7313149;19;153907;-14
2022/07/05 14:59:22;;;;;;;7.78;1.77;;;;;;;;;;7310714;19;162816;-14
2022/07/05 15:01:56;;;;;;;8.30;1.80;;;;;;;;;;7313562;19;163969;-14
2022/07/05 15:04:27;;;;;;;4.35;1.60;;;;;;;;;;7312275;19;154960;-14
2022/07/05 15:06:58;;;;;;;5.80;1.45;;;;;;;;;;7313350;19;154632;-14
2022/07/05 15:09:30;;;;;;;6.10;1.65;;;;;;;;;;7313154;19;162322;-14
2022/07/05 15:12:01;;;;;;;6.07;1.65;;;;;;;;;;7312949;19;162763;-14
2022/07/05 15:14:33;;;;;;;7.60;1.90;;;;;;;;;;7312868;19;154595;-14
2022/07/05 15:17:07;;;;;;;3.78;1.27;;;;;;;;;;7312873;19;153436;-14
2022/07/05 15:19:38;;;;;;;7.40;1.60;;;;;;;;;;7311354;19;162260;-14
2022/07/05 15:22:10;;;;;;;4.28;1.52;;;;;;;;;;7312074;19;162766;-14
2022/07/05 15:24:41;;;;;;;7.60;2.30;;;;;;;;;;7310480;19;154906;-14